Time;durP1;ratioP1;P1;durP2;ratioP2;P2;SDS_P1;SDS_P2;PMS_P1;PMS_P2;Temp;Humidity;BMP_temperature;BMP_pressure;BME280_temperature;BME280_humidity;BME280_pressure;Samples;Min_cycle;Max_cycle;Signal;HPM_P1;HPM_P2
2022/07/23 00:00:13;;;;;;;10.98;8.52;;;;;;;21.93;100.00;95845.56;1034508;28;20080;-70
2022/07/23 00:00:44;;;;;;;11.68;8.18;;;;;;;21.93;100.00;95847.44;1031556;28;20109;-75
2022/07/23 00:01:14;;;;;;;13.52;8.02;;;;;;;21.93;100.00;95844.75;1021651;28;20062;-71
2022/07/23 00:01:47;;;;;;;10.50;8.57;;;;;;;21.93;100.00;95844.75;1022587;28;20131;-72
2022/07/23 00:02:17;;;;;;;12.02;8.65;;;;;;;21.94;100.00;95847.13;1026428;28;20194;-69
2022/07/23 00:02:48;;;;;;;9.45;8.15;;;;;;;21.91;100.00;95858.47;1027545;28;20046;-71
2022/07/23 00:03:18;;;;;;;14.00;8.73;;;;;;;21.89;100.00;95856.13;1034916;28;20026;-70
2022/07/23 00:03:49;;;;;;;10.63;8.23;;;;;;;21.87;100.00;95858.34;1038242;28;20024;-70
2022/07/23 00:04:20;;;;;;;14.50;7.65;;;;;;;21.86;100.00;95850.66;1034091;28;20497;-73
2022/07/23 00:04:50;;;;;;;10.73;7.78;;;;;;;21.83;100.00;95844.09;1030702;28;20027;-70
2022/07/23 00:05:21;;;;;;;11.45;8.38;;;;;;;21.92;100.00;95853.91;1026653;28;20359;-71
2022/07/23 00:05:51;;;;;;;11.40;7.60;;;;;;;21.90;100.00;95851.56;1027957;28;20125;-72
2022/07/23 00:06:22;;;;;;;11.75;7.85;;;;;;;21.84;100.00;95848.34;1034486;28;20408;-70
2022/07/23 00:06:53;;;;;;;11.68;7.55;;;;;;;21.86;100.00;95856.81;1034112;28;20420;-70
2022/07/23 00:07:23;;;;;;;9.95;7.60;;;;;;;21.84;100.00;95858.25;1038389;28;20014;-72
2022/07/23 00:07:54;;;;;;;9.55;8.00;;;;;;;21.88;100.00;95859.13;1030362;28;20046;-69
2022/07/23 00:08:24;;;;;;;11.27;7.68;;;;;;;21.86;100.00;95850.66;1026420;28;20621;-71
2022/07/23 00:08:55;;;;;;;10.55;7.70;;;;;;;21.81;100.00;95858.91;1026165;28;20027;-70
2022/07/23 00:09:26;;;;;;;11.77;8.18;;;;;;;21.77;100.00;95858.78;1028138;28;20030;-69
2022/07/23 00:09:56;;;;;;;11.50;7.75;;;;;;;21.76;100.00;95861.78;1030742;28;20022;-72
2022/07/23 00:10:27;;;;;;;10.55;8.18;;;;;;;21.71;100.00;95860.09;1030481;28;20018;-71
2022/07/23 00:10:57;;;;;;;11.65;7.78;;;;;;;21.65;100.00;95864.09;1030696;28;20034;-71
2022/07/23 00:11:28;;;;;;;16.10;8.73;;;;;;;21.60;100.00;95872.34;1028154;28;20525;-69
2022/07/23 00:11:58;;;;;;;11.32;8.55;;;;;;;21.51;100.00;95874.28;1033675;28;20022;-74
2022/07/23 00:12:29;;;;;;;14.55;9.05;;;;;;;21.41;100.00;95870.94;1030508;28;20046;-72
2022/07/23 00:12:59;;;;;;;13.35;8.70;;;;;;;21.33;100.00;95873.66;1030448;28;20026;-72
2022/07/23 00:13:30;;;;;;;16.10;9.43;;;;;;;21.27;100.00;95878.41;1034468;28;20505;-72
2022/07/23 00:14:00;;;;;;;11.85;9.23;;;;;;;21.14;100.00;95868.78;1026873;28;20015;-73
2022/07/23 00:14:31;;;;;;;14.73;9.25;;;;;;;21.02;100.00;95877.50;1028676;28;20018;-71
2022/07/23 00:15:02;;;;;;;14.27;9.82;;;;;;;20.85;100.00;95873.06;1026735;28;20026;-72
2022/07/23 00:15:33;;;;;;;15.88;9.95;;;;;;;20.86;100.00;95888.00;1030710;28;20022;-72
2022/07/23 00:16:03;;;;;;;13.05;9.57;;;;;;;20.78;100.00;95880.81;1034559;28;20046;-72
2022/07/23 00:16:34;;;;;;;11.02;8.88;;;;;;;20.71;100.00;95888.56;1034494;28;20030;-73
2022/07/23 00:17:04;;;;;;;12.30;8.98;;;;;;;20.63;100.00;95884.84;1029317;28;20030;-72
2022/07/23 00:17:35;;;;;;;15.13;9.57;;;;;;;20.59;100.00;95894.59;1040212;28;20032;-74
2022/07/23 00:18:05;;;;;;;14.85;9.90;;;;;;;20.49;100.00;95892.28;1034570;28;20029;-72
2022/07/23 00:18:36;;;;;;;10.98;9.10;;;;;;;20.45;100.00;95894.78;1038463;28;20029;-73
2022/07/23 00:19:06;;;;;;;13.02;9.15;;;;;;;20.37;100.00;95903.59;1036710;28;20029;-72
2022/07/23 00:19:37;;;;;;;16.05;9.10;;;;;;;20.24;100.00;95891.28;1030334;28;20038;-72
2022/07/23 00:20:08;;;;;;;11.20;9.15;;;;;;;20.27;100.00;95911.19;1026995;28;20103;-73
2022/07/23 00:20:38;;;;;;;14.30;9.55;;;;;;;20.22;100.00;95906.78;1018927;29;20023;-74
2022/07/23 00:21:08;;;;;;;11.65;8.68;;;;;;;20.12;100.00;95915.94;1019879;28;20028;-72
2022/07/23 00:21:39;;;;;;;11.60;8.43;;;;;;;20.09;100.00;95910.47;1023600;28;20027;-71
2022/07/23 00:22:09;;;;;;;10.75;8.43;;;;;;;19.96;100.00;95915.69;1034962;28;20080;-71
2022/07/23 00:22:53;;;;;;;12.63;8.60;;;;;;;19.93;100.00;95924.31;1030604;28;20113;-73
2022/07/23 00:23:24;;;;;;;9.48;8.48;;;;;;;19.85;100.00;95922.47;1030219;28;20097;-72
2022/07/23 00:23:55;;;;;;;11.63;8.38;;;;;;;19.78;100.00;95925.59;1030489;28;20030;-72
2022/07/23 00:24:25;;;;;;;13.90;8.63;;;;;;;19.74;100.00;95926.53;1028261;28;20058;-72
2022/07/23 00:24:56;;;;;;;9.40;8.32;;;;;;;19.67;100.00;95926.25;1026390;28;20062;-72
2022/07/23 00:25:27;;;;;;;10.07;8.82;;;;;;;19.59;100.00;95935.78;1030447;28;20031;-72
2022/07/23 00:25:58;;;;;;;11.13;8.07;;;;;;;19.58;100.00;95944.84;1030644;28;20042;-72
2022/07/23 00:26:28;;;;;;;46.60;12.43;;;;;;;19.46;100.00;95937.50;1030563;28;20087;-72
2022/07/23 00:26:58;;;;;;;21.77;10.23;;;;;;;19.37;100.00;95950.03;1027847;28;20026;-72
2022/07/23 00:27:29;;;;;;;15.75;9.85;;;;;;;19.23;100.00;95949.41;1034908;28;20485;-72
2022/07/23 00:28:00;;;;;;;22.13;10.38;;;;;;;19.19;100.00;95959.13;1030621;28;20019;-71
2022/07/23 00:28:30;;;;;;;14.05;10.50;;;;;;;19.13;100.00;95965.69;1030298;28;20453;-71
2022/07/23 00:29:01;;;;;;;15.10;10.32;;;;;;;19.05;100.00;95967.25;1030685;28;20520;-72
2022/07/23 00:29:31;;;;;;;14.82;10.02;;;;;;;18.98;100.00;95970.34;1026351;28;20105;-70
2022/07/23 00:30:02;;;;;;;14.15;10.57;;;;;;;18.87;100.00;95965.63;1027048;28;20099;-71
2022/07/23 00:30:32;;;;;;;13.95;11.45;;;;;;;18.88;100.00;95972.50;1038330;28;20746;-71
2022/07/23 00:31:03;;;;;;;15.38;11.13;;;;;;;18.85;100.00;95971.25;1025710;28;20114;-74
2022/07/23 00:31:34;;;;;;;15.73;11.43;;;;;;;18.80;100.00;95968.75;1029858;28;20034;-70
2022/07/23 00:32:04;;;;;;;15.98;11.13;;;;;;;18.75;100.00;95966.25;1034002;28;20017;-71
2022/07/23 00:32:47;;;;;;;14.18;10.98;;;;;;;18.77;100.00;95974.66;1026195;28;20022;-71
2022/07/23 00:33:17;;;;;;;11.63;10.40;;;;;;;18.75;100.00;95966.25;1028057;28;20010;-71
2022/07/23 00:33:48;;;;;;;13.77;9.55;;;;;;;18.79;100.00;95975.16;1031004;28;20105;-70
2022/07/23 00:34:18;;;;;;;12.57;9.88;;;;;;;18.79;100.00;95978.59;1032691;28;20479;-71
2022/07/23 00:34:49;;;;;;;11.07;9.60;;;;;;;18.83;100.00;95976.09;1027077;28;20023;-71
2022/07/23 00:35:20;;;;;;;12.57;10.15;;;;;;;18.83;100.00;95984.06;1028559;28;20015;-71
2022/07/23 00:35:50;;;;;;;17.83;9.85;;;;;;;18.86;100.00;95980.03;1030940;28;20018;-71
2022/07/23 00:36:21;;;;;;;12.70;8.73;;;;;;;18.87;100.00;95961.09;1030992;28;20014;-71
2022/07/23 00:36:53;;;;;;;16.38;9.00;;;;;;;18.89;100.00;95977.53;1034863;28;20572;-72
2022/07/23 00:37:24;;;;;;;13.38;9.43;;;;;;;18.87;100.00;95969.06;1035049;28;20026;-69
2022/07/23 00:37:54;;;;;;;10.10;8.35;;;;;;;18.86;100.00;95978.13;1031454;28;20029;-70
2022/07/23 00:38:25;;;;;;;12.60;8.10;;;;;;;18.95;100.00;95981.59;1035020;28;20045;-70
2022/07/23 00:38:56;;;;;;;10.38;8.13;;;;;;;18.92;100.00;95987.53;1031443;28;20025;-71
2022/07/23 00:39:26;;;;;;;11.95;9.13;;;;;;;18.88;100.00;95973.31;1035060;28;20029;-70
2022/07/23 00:39:57;;;;;;;15.13;9.27;;;;;;;18.92;100.00;95982.22;1035403;28;20504;-70
2022/07/23 00:40:27;;;;;;;10.95;9.18;;;;;;;18.90;100.00;95979.09;1038903;28;20588;-72
2022/07/23 00:40:58;;;;;;;16.08;8.95;;;;;;;18.82;100.00;95972.66;1035088;28;20104;-70
2022/07/23 00:41:28;;;;;;;11.63;9.52;;;;;;;18.88;100.00;95973.31;1034319;28;20084;-70
2022/07/23 00:41:59;;;;;;;10.90;8.13;;;;;;;18.91;100.00;95977.97;1031023;28;20066;-70
2022/07/23 00:42:31;;;;;;;12.70;8.20;;;;;;;18.91;100.00;95975.31;1031126;28;20088;-71
2022/07/23 00:43:02;;;;;;;13.15;8.18;;;;;;;18.97;100.00;95981.28;1035320;28;20104;-72
2022/07/23 00:43:32;;;;;;;11.15;7.93;;;;;;;18.98;100.00;95975.69;1035360;28;20017;-71
2022/07/23 00:44:19;;;;;;;12.85;7.70;;;;;;;19.06;100.00;95980.22;1030937;28;20105;-71
2022/07/23 00:44:50;;;;;;;12.82;7.85;;;;;;;19.17;100.00;95983.34;1031746;28;20115;-72
2022/07/23 00:45:20;;;;;;;9.15;6.90;;;;;;;19.14;100.00;95976.00;1035071;28;20125;-71
2022/07/23 00:45:51;;;;;;;8.68;7.60;;;;;;;19.22;100.00;95982.44;1029165;28;20034;-71
2022/07/23 00:46:22;;;;;;;8.18;6.38;;;;;;;19.19;100.00;95964.44;1027394;28;20111;-70
2022/07/23 00:46:54;;;;;;;8.50;6.95;;;;;;;19.25;100.00;95982.59;1031061;28;20509;-71
2022/07/23 00:47:24;;;;;;;11.02;7.10;;;;;;;19.37;100.00;95987.28;1027243;28;20034;-71
2022/07/23 00:47:55;;;;;;;11.18;6.65;;;;;;;19.52;100.00;95989.50;1027028;28;20145;-71
2022/07/23 00:48:25;;;;;;;9.20;6.22;;;;;;;19.66;100.00;95988.59;1026915;28;20037;-71
2022/07/23 00:48:56;;;;;;;8.88;6.18;;;;;;;19.64;100.00;95988.88;1030801;28;20026;-73
2022/07/23 00:49:28;;;;;;;9.85;7.07;;;;;;;19.64;100.00;95985.44;1031327;28;20030;-71
2022/07/23 00:49:58;;;;;;;9.70;6.60;;;;;;;19.58;100.00;95976.00;1030782;28;20144;-72
2022/07/23 00:50:29;;;;;;;8.02;5.80;;;;;;;19.57;100.00;95980.56;1031089;28;20033;-71
2022/07/23 00:50:59;;;;;;;7.40;6.05;;;;;;;19.70;100.00;96000.16;1031305;28;20573;-71
2022/07/23 00:51:30;;;;;;;7.05;6.03;;;;;;;19.75;100.00;95997.31;1034660;28;20025;-72
2022/07/23 00:52:02;;;;;;;8.75;6.28;;;;;;;19.72;100.00;95997.97;1031103;28;20030;-71
2022/07/23 00:52:32;;;;;;;7.63;6.13;;;;;;;19.78;100.00;96007.34;1034719;28;20021;-71
2022/07/23 00:53:03;;;;;;;6.95;5.80;;;;;;;19.78;100.00;96002.84;1027050;28;20035;-73
2022/07/23 00:53:34;;;;;;;10.82;6.47;;;;;;;19.83;100.00;96015.19;1030866;28;20695;-71
2022/07/23 00:54:04;;;;;;;7.97;6.30;;;;;;;19.85;100.00;96018.34;1030835;28;20054;-71
2022/07/23 00:54:35;;;;;;;9.25;6.05;;;;;;;19.84;100.00;96016.75;1031307;28;20141;-71
2022/07/23 00:55:07;;;;;;;6.60;5.90;;;;;;;19.87;100.00;96024.13;1027121;28;20058;-71
2022/07/23 00:55:37;;;;;;;7.50;5.70;;;;;;;19.81;100.00;96014.72;1027423;28;20030;-71
2022/07/23 00:56:08;;;;;;;7.18;5.72;;;;;;;19.92;100.00;96029.28;1030998;28;20114;-72
2022/07/23 00:56:38;;;;;;;7.30;5.75;;;;;;;19.93;100.00;96024.75;1026692;28;20030;-71
2022/07/23 00:57:09;;;;;;;9.60;5.53;;;;;;;19.99;100.00;96021.59;1023005;29;20506;-71
2022/07/23 00:57:40;;;;;;;7.40;5.43;;;;;;;20.05;100.00;96021.41;1034672;28;20029;-70
2022/07/23 00:58:13;;;;;;;9.25;5.70;;;;;;;20.17;100.00;96032.22;1031079;28;20049;-71
2022/07/23 00:58:43;;;;;;;6.00;4.88;;;;;;;20.27;100.00;96023.91;1031099;28;20029;-71
2022/07/23 00:59:14;;;;;;;7.93;4.82;;;;;;;20.24;100.00;96027.97;1030917;28;20026;-70
2022/07/23 00:59:44;;;;;;;6.38;5.53;;;;;;;20.22;100.00;96034.72;1031126;28;20085;-71
2022/07/23 01:00:15;;;;;;;8.52;5.75;;;;;;;20.16;100.00;96028.00;1031184;28;20029;-74
2022/07/23 01:00:46;;;;;;;7.20;5.95;;;;;;;20.19;100.00;96038.81;1030997;28;20786;-71
2022/07/23 01:01:16;;;;;;;7.72;5.65;;;;;;;20.23;100.00;96041.63;1030275;28;20068;-71
2022/07/23 01:01:48;;;;;;;7.78;5.72;;;;;;;20.16;100.00;96036.00;1031012;28;20026;-72
2022/07/23 01:02:19;;;;;;;7.45;5.63;;;;;;;20.02;100.00;96042.28;1031013;28;20026;-71
2022/07/23 01:02:50;;;;;;;9.18;5.68;;;;;;;20.10;100.00;96050.56;1031312;28;20114;-71
2022/07/23 01:03:20;;;;;;;9.13;5.55;;;;;;;20.07;100.00;96045.88;1031187;28;20022;-71
2022/07/23 01:03:51;;;;;;;9.25;5.60;;;;;;;20.09;100.00;96052.47;1031406;28;20026;-70
2022/07/23 01:04:21;;;;;;;5.93;5.40;;;;;;;20.05;100.00;96050.72;1034960;28;20053;-70
2022/07/23 01:04:52;;;;;;;8.40;6.47;;;;;;;19.91;100.00;96042.91;1031117;28;20489;-70
2022/07/23 01:05:22;;;;;;;7.95;5.55;;;;;;;19.94;100.00;96037.72;1031328;28;20461;-71
2022/07/23 01:05:53;;;;;;;7.72;5.38;;;;;;;19.84;100.00;96046.03;1030978;28;20026;-71
2022/07/23 01:06:23;;;;;;;9.27;5.93;;;;;;;19.74;100.00;96049.81;1026899;28;20014;-72
2022/07/23 01:06:54;;;;;;;7.30;5.55;;;;;;;19.68;100.00;96050.28;1022765;28;20038;-71
2022/07/23 01:07:24;;;;;;;6.60;5.88;;;;;;;19.58;100.00;96045.22;1022825;29;20058;-70
2022/07/23 01:07:55;;;;;;;6.95;6.00;;;;;;;19.52;100.00;96044.63;1023179;28;20410;-70
2022/07/23 01:08:25;;;;;;;6.43;5.72;;;;;;;19.52;100.00;96057.91;1023306;28;20033;-71
2022/07/23 01:08:56;;;;;;;7.03;5.57;;;;;;;19.41;100.00;96048.66;1027006;28;20019;-72
2022/07/23 01:09:26;;;;;;;7.80;6.35;;;;;;;19.39;100.00;96062.28;1029755;28;20018;-72
2022/07/23 01:09:57;;;;;;;7.35;5.88;;;;;;;19.35;100.00;96068.53;1031064;28;20021;-71
2022/07/23 01:10:34;;;;;;;9.20;5.72;;;;;;;19.27;100.00;96075.41;1027148;28;20050;-70
2022/07/23 01:11:04;;;;;;;6.35;5.75;;;;;;;19.27;100.00;96084.16;1026571;28;20126;-70
2022/07/23 01:11:36;;;;;;;7.75;6.35;;;;;;;19.19;100.00;96087.59;1028019;28;20034;-71
2022/07/23 01:12:07;;;;;;;13.48;6.07;;;;;;;19.17;100.00;96083.66;1030768;28;20438;-71
2022/07/23 01:12:37;;;;;;;8.25;5.68;;;;;;;19.24;100.00;96081.34;1027453;28;20557;-70
2022/07/23 01:13:09;;;;;;;9.23;6.10;;;;;;;19.22;100.00;96092.31;1036155;28;20030;-72
2022/07/23 01:13:42;;;;;;;8.43;6.30;;;;;;;19.17;100.00;96089.00;1031383;28;20137;-70
2022/07/23 01:14:14;;;;;;;13.93;6.22;;;;;;;19.11;100.00;96091.00;1029646;28;20481;-70
2022/07/23 01:14:45;;;;;;;7.43;6.20;;;;;;;19.01;100.00;96105.38;1034640;28;20412;-70
2022/07/23 01:15:15;;;;;;;7.95;6.30;;;;;;;19.00;100.00;96100.34;1030599;28;20018;-70
2022/07/23 01:15:46;;;;;;;7.55;6.72;;;;;;;18.96;100.00;96100.19;1031148;28;20026;-71
2022/07/23 01:16:16;;;;;;;10.18;6.75;;;;;;;18.90;100.00;96082.78;1029939;28;20069;-70
2022/07/23 01:16:47;;;;;;;7.18;5.82;;;;;;;18.89;100.00;96094.53;1034883;28;20057;-71
2022/07/23 01:17:18;;;;;;;11.45;6.60;;;;;;;18.84;100.00;96087.44;1026711;28;20518;-71
2022/07/23 01:17:48;;;;;;;9.30;6.80;;;;;;;18.83;100.00;96095.75;1027451;28;20022;-71
2022/07/23 01:18:19;;;;;;;8.00;6.28;;;;;;;18.79;100.00;96090.25;1030996;28;20564;-70
2022/07/23 01:18:49;;;;;;;8.18;6.50;;;;;;;18.76;100.00;96098.06;1031082;28;20026;-70
2022/07/23 01:19:20;;;;;;;9.75;6.63;;;;;;;18.69;100.00;96095.03;1026989;28;20537;-70
2022/07/23 01:19:50;;;;;;;7.82;6.18;;;;;;;18.68;100.00;96106.75;1026901;28;20042;-70
2022/07/23 01:20:21;;;;;;;9.00;6.72;;;;;;;18.66;100.00;96100.97;1031280;28;20034;-73
2022/07/23 01:20:51;;;;;;;8.50;6.75;;;;;;;18.63;100.00;96109.53;1035362;28;20113;-71
2022/07/23 01:21:22;;;;;;;8.75;7.20;;;;;;;18.58;100.00;96105.94;1036341;28;20112;-71
2022/07/23 01:21:52;;;;;;;11.88;7.13;;;;;;;18.52;100.00;96096.50;1029661;28;20699;-71
2022/07/23 01:22:23;;;;;;;8.90;6.97;;;;;;;18.41;100.00;96078.44;1022876;28;20039;-73
2022/07/23 01:22:53;;;;;;;12.23;7.68;;;;;;;18.45;100.00;96085.53;1026995;28;20031;-70
2022/07/23 01:23:24;;;;;;;12.95;8.07;;;;;;;18.35;100.00;96069.84;1024860;28;20056;-70
2022/07/23 01:23:54;;;;;;;9.07;7.30;;;;;;;18.38;100.00;96077.22;1034662;28;20037;-71
2022/07/23 01:24:25;;;;;;;10.57;7.53;;;;;;;18.35;100.00;96080.47;1035108;28;20532;-70
2022/07/23 01:24:55;;;;;;;9.45;7.47;;;;;;;18.32;100.00;96086.38;1031133;28;20030;-71
2022/07/23 01:25:26;;;;;;;10.30;7.90;;;;;;;18.22;100.00;96086.63;1030680;28;20540;-69
2022/07/23 01:25:56;;;;;;;11.82;8.00;;;;;;;18.25;100.00;96099.31;1034981;28;20022;-70
2022/07/23 01:26:27;;;;;;;10.00;8.40;;;;;;;18.24;100.00;96111.00;1035320;28;20516;-68
2022/07/23 01:26:57;;;;;;;10.57;8.25;;;;;;;18.20;100.00;96108.16;1037176;28;20767;-70
2022/07/23 01:27:28;;;;;;;12.45;9.18;;;;;;;18.15;100.00;96110.97;1034770;28;20088;-69
2022/07/23 01:27:58;;;;;;;9.50;7.75;;;;;;;18.08;100.00;96114.03;1035083;28;20040;-70
2022/07/23 01:28:29;;;;;;;9.27;8.00;;;;;;;18.12;100.00;96130.16;1026736;28;20609;-68
2022/07/23 01:28:59;;;;;;;12.30;8.50;;;;;;;18.09;100.00;96130.75;1034873;28;20044;-70
2022/07/23 01:29:32;;;;;;;11.95;8.70;;;;;;;18.04;100.00;96129.00;1034661;28;20436;-71
2022/07/23 01:30:03;;;;;;;10.55;8.70;;;;;;;18.01;100.00;96128.81;1034668;28;20030;-72
2022/07/23 01:30:33;;;;;;;13.80;9.52;;;;;;;17.97;100.00;96131.25;1030714;28;20072;-72
2022/07/23 01:31:04;;;;;;;11.95;9.35;;;;;;;17.95;100.00;96136.09;1034405;28;20121;-70
2022/07/23 01:31:34;;;;;;;14.23;9.20;;;;;;;17.88;100.00;96135.75;1034379;28;20029;-70
2022/07/23 01:32:05;;;;;;;13.35;9.25;;;;;;;17.81;100.00;96124.75;1034580;28;20041;-70
2022/07/23 01:32:36;;;;;;;15.35;9.15;;;;;;;17.80;100.00;96131.91;1034774;28;20030;-71
2022/07/23 01:33:06;;;;;;;14.50;9.90;;;;;;;17.77;100.00;96123.75;1031054;28;20014;-71
2022/07/23 01:33:40;;;;;;;13.55;9.77;;;;;;;17.75;100.00;96126.69;1032462;28;20025;-69
2022/07/23 01:34:10;;;;;;;13.40;9.65;;;;;;;17.72;100.00;96137.13;1031357;28;20768;-71
2022/07/23 01:34:41;;;;;;;11.70;9.57;;;;;;;17.67;100.00;96141.47;1030878;28;20058;-71
2022/07/23 01:35:11;;;;;;;11.70;9.23;;;;;;;17.59;100.00;96131.53;1028666;28;20410;-70
2022/07/23 01:35:42;;;;;;;13.80;9.90;;;;;;;17.63;100.00;96143.09;1030998;28;20050;-70
2022/07/23 01:36:12;;;;;;;12.68;9.20;;;;;;;17.59;100.00;96134.19;1031136;28;20049;-70
2022/07/23 01:36:43;;;;;;;14.63;10.93;;;;;;;17.53;100.00;96124.75;1030951;28;20026;-69
2022/07/23 01:37:13;;;;;;;20.00;10.18;;;;;;;17.44;100.00;96121.25;1030989;28;20058;-70
2022/07/23 01:37:43;;;;;;;11.88;9.57;;;;;;;17.47;100.00;96128.63;1030759;28;20035;-70
2022/07/23 01:38:14;;;;;;;13.25;9.70;;;;;;;17.43;100.00;96124.97;1030920;28;20026;-72
2022/07/23 01:38:44;;;;;;;15.82;10.88;;;;;;;17.38;100.00;96117.13;1026665;28;20031;-71
2022/07/23 01:39:15;;;;;;;14.38;10.18;;;;;;;17.37;100.00;96123.47;1030798;28;20113;-70
2022/07/23 01:39:45;;;;;;;14.23;10.55;;;;;;;17.34;100.00;96121.44;1035097;28;20022;-72
2022/07/23 01:40:16;;;;;;;14.82;11.30;;;;;;;17.35;100.00;96126.44;1034766;28;20064;-71
2022/07/23 01:40:46;;;;;;;14.40;10.88;;;;;;;17.33;100.00;96125.94;1039129;28;20100;-71
2022/07/23 01:41:17;;;;;;;14.98;10.25;;;;;;;17.28;100.00;96118.09;1038392;28;20037;-70
2022/07/23 01:41:47;;;;;;;16.10;12.50;;;;;;;17.28;100.00;96118.09;1030912;28;20695;-71
2022/07/23 01:42:18;;;;;;;15.75;10.95;;;;;;;17.20;100.00;96108.97;1030432;28;20022;-70
2022/07/23 01:42:48;;;;;;;14.82;11.50;;;;;;;17.22;100.00;96115.84;1026897;28;20085;-70
2022/07/23 01:43:19;;;;;;;15.52;12.20;;;;;;;17.18;100.00;96108.47;1035094;28;20026;-70
2022/07/23 01:43:49;;;;;;;15.90;11.90;;;;;;;17.18;100.00;96111.13;1034792;28;20036;-69
2022/07/23 01:44:20;;;;;;;14.75;11.32;;;;;;;17.16;100.00;96107.19;1026584;28;20101;-71
2022/07/23 01:44:50;;;;;;;13.07;11.48;;;;;;;17.10;100.00;96095.09;1026996;28;20877;-69
2022/07/23 01:45:21;;;;;;;16.60;12.32;;;;;;;17.13;100.00;96100.59;1027001;28;20023;-70
2022/07/23 01:45:51;;;;;;;18.02;12.68;;;;;;;17.15;100.00;96101.09;1027098;28;20031;-72
2022/07/23 01:46:22;;;;;;;18.83;13.88;;;;;;;17.12;100.00;96085.78;1035153;28;20048;-70
2022/07/23 01:46:56;;;;;;;17.95;12.77;;;;;;;17.06;100.00;96079.00;1031602;28;20035;-70
2022/07/23 01:47:31;;;;;;;18.05;13.70;;;;;;;17.12;100.00;96080.47;1027035;28;20042;-71
2022/07/23 01:48:02;;;;;;;16.77;12.63;;;;;;;17.10;100.00;96074.72;1031042;28;20023;-69
2022/07/23 01:48:32;;;;;;;14.57;12.85;;;;;;;17.09;100.00;96061.72;1026817;28;20035;-69
2022/07/23 01:49:03;;;;;;;13.85;11.68;;;;;;;17.06;100.00;96068.41;1030402;28;20053;-68
2022/07/23 01:49:33;;;;;;;16.27;12.48;;;;;;;17.05;100.00;96064.19;1025707;28;20035;-68
2022/07/23 01:50:04;;;;;;;14.32;11.52;;;;;;;17.04;100.00;96067.16;1029296;28;20026;-69
2022/07/23 01:50:35;;;;;;;15.27;12.32;;;;;;;17.04;100.00;96070.59;1033891;28;20497;-70
2022/07/23 01:51:05;;;;;;;17.85;12.77;;;;;;;17.03;100.00;96069.00;1038501;28;20029;-70
2022/07/23 01:51:36;;;;;;;13.48;11.95;;;;;;;17.03;100.00;96073.50;1034906;28;20029;-70
2022/07/23 01:52:10;;;;;;;17.35;13.50;;;;;;;17.00;100.00;96074.09;1026911;28;20023;-69
2022/07/23 01:52:41;;;;;;;18.23;13.98;;;;;;;16.96;100.00;96073.91;1022908;29;20031;-69
2022/07/23 01:53:11;;;;;;;16.23;13.20;;;;;;;16.99;100.00;96078.63;1022916;29;20499;-70
2022/07/23 01:53:42;;;;;;;16.65;13.07;;;;;;;16.98;100.00;96085.00;1024157;28;20081;-70
2022/07/23 01:54:12;;;;;;;15.95;13.32;;;;;;;16.99;100.00;96083.91;1027385;28;20031;-69
2022/07/23 01:54:42;;;;;;;21.75;14.57;;;;;;;17.00;100.00;96092.66;1026924;28;20027;-70
2022/07/23 01:55:13;;;;;;;18.67;14.68;;;;;;;16.91;100.00;96074.78;1026820;28;20375;-69
2022/07/23 01:55:46;;;;;;;18.77;14.73;;;;;;;17.01;100.00;96081.78;1026651;28;20031;-69
2022/07/23 01:56:18;;;;;;;17.55;14.90;;;;;;;17.00;100.00;96090.81;1030016;28;20064;-70
2022/07/23 01:56:49;;;;;;;18.40;14.25;;;;;;;17.00;100.00;96090.00;1030740;28;20092;-70
2022/07/23 01:57:19;;;;;;;17.05;13.38;;;;;;;16.95;100.00;96088.25;1029438;28;20077;-69
2022/07/23 01:57:50;;;;;;;18.30;13.27;;;;;;;16.95;100.00;96080.28;1031267;28;20117;-70
2022/07/23 01:58:20;;;;;;;19.88;13.40;;;;;;;16.94;100.00;96079.50;1030863;28;20018;-70
2022/07/23 01:58:51;;;;;;;20.88;14.30;;;;;;;16.95;100.00;96080.28;1034685;28;20025;-70
2022/07/23 01:59:21;;;;;;;22.33;14.57;;;;;;;16.93;100.00;96064.69;1027001;28;20442;-69
2022/07/23 01:59:52;;;;;;;16.83;13.60;;;;;;;16.90;100.00;96064.47;1030724;28;20030;-70
2022/07/23 02:00:22;;;;;;;16.17;13.38;;;;;;;16.98;100.00;96073.63;1034765;28;20272;-70
2022/07/23 02:00:53;;;;;;;17.75;13.00;;;;;;;16.94;100.00;96065.47;1039335;28;20022;-69
2022/07/23 02:01:24;;;;;;;15.27;13.55;;;;;;;16.98;100.00;96070.97;1038447;28;20087;-69
2022/07/23 02:01:54;;;;;;;19.73;14.07;;;;;;;16.99;100.00;96073.31;1043180;28;20687;-70
2022/07/23 02:02:25;;;;;;;19.77;15.32;;;;;;;17.00;100.00;96080.22;1038755;28;20018;-70
2022/07/23 02:02:55;;;;;;;17.98;13.88;;;;;;;16.95;100.00;96069.69;1034814;28;20405;-70
2022/07/23 02:03:26;;;;;;;21.10;14.85;;;;;;;17.02;100.00;96079.91;1030910;28;20120;-70
2022/07/23 02:03:56;;;;;;;19.67;14.18;;;;;;;17.02;100.00;96080.69;1030999;28;20064;-69
2022/07/23 02:04:28;;;;;;;29.00;14.73;;;;;;;17.03;100.00;96084.91;1027006;28;20473;-69
2022/07/23 02:04:59;;;;;;;16.35;13.57;;;;;;;16.99;100.00;96075.97;1026940;28;20450;-69
2022/07/23 02:05:30;;;;;;;18.25;14.55;;;;;;;16.96;100.00;96072.03;1026967;28;20022;-69
2022/07/23 02:06:03;;;;;;;16.85;14.43;;;;;;;17.03;100.00;96079.59;1021615;28;20012;-69
2022/07/23 02:06:33;;;;;;;15.80;13.50;;;;;;;17.01;100.00;96079.13;1027302;28;20418;-69
2022/07/23 02:07:04;;;;;;;16.05;13.85;;;;;;;17.04;100.00;96072.44;1027182;28;20019;-70
2022/07/23 02:07:35;;;;;;;16.95;13.90;;;;;;;17.04;100.00;96070.59;1028847;28;20496;-70
2022/07/23 02:08:05;;;;;;;16.02;13.23;;;;;;;17.00;100.00;96063.50;1026557;28;20038;-69
2022/07/23 02:08:36;;;;;;;18.88;14.32;;;;;;;17.02;100.00;96067.44;1034688;28;20561;-70
2022/07/23 02:09:06;;;;;;;18.58;14.48;;;;;;;17.03;100.00;96066.34;1026755;28;20022;-73
2022/07/23 02:09:37;;;;;;;18.95;14.55;;;;;;;17.03;100.00;96063.69;1026675;28;20034;-70
2022/07/23 02:10:08;;;;;;;19.77;14.63;;;;;;;17.01;100.00;96057.13;1030865;28;20486;-69
2022/07/23 02:10:38;;;;;;;17.20;15.30;;;;;;;17.02;100.00;96059.47;1027049;28;20025;-70
2022/07/23 02:11:09;;;;;;;19.40;15.30;;;;;;;16.99;100.00;96062.72;1022141;28;20027;-70
2022/07/23 02:11:39;;;;;;;17.45;14.48;;;;;;;16.93;100.00;96047.97;1021400;28;20039;-69
2022/07/23 02:12:10;;;;;;;16.92;14.27;;;;;;;17.03;100.00;96054.94;1022735;28;20027;-70
2022/07/23 02:12:40;;;;;;;17.85;14.95;;;;;;;17.03;100.00;96052.31;1027097;28;20030;-70
2022/07/23 02:13:11;;;;;;;16.13;13.70;;;;;;;17.03;100.00;96049.66;1034781;28;20104;-70
2022/07/23 02:13:41;;;;;;;19.67;13.23;;;;;;;16.96;100.00;96039.44;1030762;28;20033;-69
2022/07/23 02:14:12;;;;;;;18.00;15.02;;;;;;;17.03;100.00;96049.66;1029284;28;20042;-68
2022/07/23 02:14:42;;;;;;;16.27;13.38;;;;;;;17.02;100.00;96048.88;1030102;28;20146;-69
2022/07/23 02:15:15;;;;;;;16.73;13.82;;;;;;;17.00;100.00;96053.69;1027589;28;20033;-69
2022/07/23 02:15:47;;;;;;;17.23;14.48;;;;;;;17.02;100.00;96048.09;1031617;28;20044;-70
2022/07/23 02:16:18;;;;;;;16.90;15.10;;;;;;;16.99;100.00;96044.16;1034833;28;20057;-69
2022/07/23 02:16:48;;;;;;;17.40;14.48;;;;;;;16.99;100.00;96041.50;1023697;28;20112;-69
2022/07/23 02:17:18;;;;;;;17.33;14.80;;;;;;;17.01;100.00;96049.19;1027018;28;20030;-70
2022/07/23 02:17:49;;;;;;;16.58;14.75;;;;;;;17.00;100.00;96043.09;1026637;28;20022;-70
2022/07/23 02:18:19;;;;;;;17.88;14.90;;;;;;;17.00;100.00;96040.44;1028573;28;20026;-69
2022/07/23 02:18:50;;;;;;;16.73;14.25;;;;;;;17.00;100.00;96042.28;1038715;28;20020;-69
2022/07/23 02:19:20;;;;;;;18.30;14.57;;;;;;;17.02;100.00;96040.13;1039086;28;20064;-69
2022/07/23 02:19:51;;;;;;;18.35;15.40;;;;;;;17.01;100.00;96034.06;1042755;28;20029;-70
2022/07/23 02:20:21;;;;;;;18.48;15.48;;;;;;;17.00;100.00;96032.50;1038978;28;20497;-70
2022/07/23 02:20:52;;;;;;;17.63;15.38;;;;;;;17.01;100.00;96039.34;1035055;28;20108;-70
2022/07/23 02:21:22;;;;;;;15.95;14.18;;;;;;;17.04;100.00;96040.63;1034069;28;20963;-69
2022/07/23 02:21:54;;;;;;;17.70;14.70;;;;;;;17.04;100.00;96044.06;1030334;28;20022;-71